sensor_id;sensor_type;location;lat;lon;timestamp;P1;durP1;ratioP1;P2;durP2;ratioP2
42714;SDS011;28351;51.480;5.706;2023-02-01T00:00:31;13.95;;;4.60;;
42714;SDS011;28351;51.480;5.706;2023-02-01T00:02:59;15.60;;;4.97;;
42714;SDS011;28351;51.480;5.706;2023-02-01T00:05:25;17.15;;;4.22;;
42714;SDS011;28351;51.480;5.706;2023-02-01T00:07:50;17.30;;;4.65;;
42714;SDS011;28351;51.480;5.706;2023-02-01T00:10:16;19.70;;;4.88;;
42714;SDS011;28351;51.480;5.706;2023-02-01T00:12:42;11.20;;;4.00;;
42714;SDS011;28351;51.480;5.706;2023-02-01T00:15:08;9.00;;;3.55;;
42714;SDS011;28351;51.480;5.706;2023-02-01T00:17:34;12.80;;;4.07;;
42714;SDS011;28351;51.480;5.706;2023-02-01T00:20:00;11.45;;;3.55;;
42714;SDS011;28351;51.480;5.706;2023-02-01T00:22:25;9.98;;;3.35;;
42714;SDS011;28351;51.480;5.706;2023-02-01T00:24:51;8.75;;;3.47;;
42714;SDS011;28351;51.480;5.706;2023-02-01T00:27:16;10.82;;;3.08;;
42714;SDS011;28351;51.480;5.706;2023-02-01T00:29:45;16.45;;;3.88;;
42714;SDS011;28351;51.480;5.706;2023-02-01T00:32:11;12.48;;;2.83;;
42714;SDS011;28351;51.480;5.706;2023-02-01T00:34:37;12.05;;;2.78;;
42714;SDS011;28351;51.480;5.706;2023-02-01T00:37:02;7.78;;;2.42;;
42714;SDS011;28351;51.480;5.706;2023-02-01T00:39:28;14.02;;;3.20;;
42714;SDS011;28351;51.480;5.706;2023-02-01T00:41:56;8.23;;;2.65;;
42714;SDS011;28351;51.480;5.706;2023-02-01T00:44:22;13.15;;;3.15;;
42714;SDS011;28351;51.480;5.706;2023-02-01T00:46:47;7.20;;;2.38;;
42714;SDS011;28351;51.480;5.706;2023-02-01T00:49:13;16.60;;;3.30;;
42714;SDS011;28351;51.480;5.706;2023-02-01T00:51:38;9.85;;;2.95;;
42714;SDS011;28351;51.480;5.706;2023-02-01T00:54:04;8.75;;;2.63;;
42714;SDS011;28351;51.480;5.706;2023-02-01T00:56:30;14.80;;;2.88;;
42714;SDS011;28351;51.480;5.706;2023-02-01T00:58:55;8.00;;;1.98;;
42714;SDS011;28351;51.480;5.706;2023-02-01T01:01:22;13.68;;;2.40;;
42714;SDS011;28351;51.480;5.706;2023-02-01T01:03:54;7.38;;;2.20;;
42714;SDS011;28351;51.480;5.706;2023-02-01T01:06:25;6.93;;;2.13;;
42714;SDS011;28351;51.480;5.706;2023-02-01T01:08:54;8.93;;;2.20;;
42714;SDS011;28351;51.480;5.706;2023-02-01T01:11:21;16.67;;;2.85;;
42714;SDS011;28351;51.480;5.706;2023-02-01T01:13:50;15.23;;;2.00;;
42714;SDS011;28351;51.480;5.706;2023-02-01T01:16:20;8.77;;;2.42;;
42714;SDS011;28351;51.480;5.706;2023-02-01T01:18:46;7.85;;;2.40;;
42714;SDS011;28351;51.480;5.706;2023-02-01T01:21:13;11.23;;;2.20;;
42714;SDS011;28351;51.480;5.706;2023-02-01T01:23:40;7.65;;;1.90;;
42714;SDS011;28351;51.480;5.706;2023-02-01T01:26:07;9.93;;;2.10;;
42714;SDS011;28351;51.480;5.706;2023-02-01T01:28:40;11.38;;;2.00;;
42714;SDS011;28351;51.480;5.706;2023-02-01T01:31:13;9.82;;;2.30;;
42714;SDS011;28351;51.480;5.706;2023-02-01T01:33:40;14.65;;;2.20;;
42714;SDS011;28351;51.480;5.706;2023-02-01T01:36:09;11.98;;;2.50;;
42714;SDS011;28351;51.480;5.706;2023-02-01T01:38:36;12.30;;;2.40;;
42714;SDS011;28351;51.480;5.706;2023-02-01T01:41:02;10.32;;;2.30;;
42714;SDS011;28351;51.480;5.706;2023-02-01T01:43:44;14.25;;;2.30;;
42714;SDS011;28351;51.480;5.706;2023-02-01T01:49:17;9.63;;;2.45;;
42714;SDS011;28351;51.480;5.706;2023-02-01T01:51:50;13.85;;;2.70;;
42714;SDS011;28351;51.480;5.706;2023-02-01T01:54:23;10.32;;;2.58;;
42714;SDS011;28351;51.480;5.706;2023-02-01T01:56:55;9.57;;;1.92;;
42714;SDS011;28351;51.480;5.706;2023-02-01T01:59:24;5.38;;;2.40;;
42714;SDS011;28351;51.480;5.706;2023-02-01T02:01:50;12.15;;;2.38;;
42714;SDS011;28351;51.480;5.706;2023-02-01T02:04:17;8.25;;;1.83;;
42714;SDS011;28351;51.480;5.706;2023-02-01T02:06:45;9.90;;;1.92;;
42714;SDS011;28351;51.480;5.706;2023-02-01T02:09:12;12.63;;;2.55;;
42714;SDS011;28351;51.480;5.706;2023-02-01T02:11:38;7.82;;;2.25;;
42714;SDS011;28351;51.480;5.706;2023-02-01T02:14:05;19.67;;;2.80;;
42714;SDS011;28351;51.480;5.706;2023-02-01T02:16:43;14.50;;;3.13;;
42714;SDS011;28351;51.480;5.706;2023-02-01T02:31:36;11.20;;;2.40;;
42714;SDS011;28351;51.480;5.706;2023-02-01T02:34:21;6.93;;;2.33;;
42714;SDS011;28351;51.480;5.706;2023-02-01T02:39:54;11.68;;;2.70;;
42714;SDS011;28351;51.480;5.706;2023-02-01T02:49:09;10.95;;;3.20;;
42714;SDS011;28351;51.480;5.706;2023-02-01T02:52:05;13.18;;;2.80;;
42714;SDS011;28351;51.480;5.706;2023-02-01T02:54:56;11.65;;;2.70;;
42714;SDS011;28351;51.480;5.706;2023-02-01T03:00:21;8.75;;;3.00;;
42714;SDS011;28351;51.480;5.706;2023-02-01T03:03:08;15.10;;;2.85;;
42714;SDS011;28351;51.480;5.706;2023-02-01T03:05:52;11.38;;;3.00;;
42714;SDS011;28351;51.480;5.706;2023-02-01T03:08:19;10.35;;;2.83;;
42714;SDS011;28351;51.480;5.706;2023-02-01T03:16:32;7.95;;;1.75;;
42714;SDS011;28351;51.480;5.706;2023-02-01T03:19:18;12.00;;;3.33;;
42714;SDS011;28351;51.480;5.706;2023-02-01T03:21:45;6.38;;;2.00;;
42714;SDS011;28351;51.480;5.706;2023-02-01T03:27:21;11.07;;;2.63;;
42714;SDS011;28351;51.480;5.706;2023-02-01T03:32:35;14.65;;;3.13;;
42714;SDS011;28351;51.480;5.706;2023-02-01T03:35:28;9.13;;;2.95;;
42714;SDS011;28351;51.480;5.706;2023-02-01T03:46:17;11.98;;;2.63;;
42714;SDS011;28351;51.480;5.706;2023-02-01T03:48:57;10.90;;;2.70;;
42714;SDS011;28351;51.480;5.706;2023-02-01T03:51:26;10.80;;;2.25;;
42714;SDS011;28351;51.480;5.706;2023-02-01T03:53:55;7.75;;;2.10;;
42714;SDS011;28351;51.480;5.706;2023-02-01T03:56:23;21.50;;;2.78;;
42714;SDS011;28351;51.480;5.706;2023-02-01T03:58:52;8.88;;;2.53;;
42714;SDS011;28351;51.480;5.706;2023-02-01T04:01:30;11.73;;;2.72;;
42714;SDS011;28351;51.480;5.706;2023-02-01T04:03:56;10.10;;;2.28;;
42714;SDS011;28351;51.480;5.706;2023-02-01T04:06:23;6.88;;;2.17;;
42714;SDS011;28351;51.480;5.706;2023-02-01T04:08:50;11.35;;;2.15;;
42714;SDS011;28351;51.480;5.706;2023-02-01T04:11:15;7.30;;;2.22;;
42714;SDS011;28351;51.480;5.706;2023-02-01T04:13:41;8.48;;;2.67;;
42714;SDS011;28351;51.480;5.706;2023-02-01T04:16:07;6.95;;;2.13;;
42714;SDS011;28351;51.480;5.706;2023-02-01T04:18:33;10.45;;;2.70;;
42714;SDS011;28351;51.480;5.706;2023-02-01T04:20:59;19.67;;;2.13;;
42714;SDS011;28351;51.480;5.706;2023-02-01T04:23:26;10.88;;;2.20;;
42714;SDS011;28351;51.480;5.706;2023-02-01T04:25:52;7.30;;;2.78;;
42714;SDS011;28351;51.480;5.706;2023-02-01T04:28:18;10.73;;;1.73;;
42714;SDS011;28351;51.480;5.706;2023-02-01T04:30:43;11.60;;;3.00;;
42714;SDS011;28351;51.480;5.706;2023-02-01T04:33:10;16.88;;;2.53;;
42714;SDS011;28351;51.480;5.706;2023-02-01T04:35:38;6.47;;;2.13;;
42714;SDS011;28351;51.480;5.706;2023-02-01T04:38:04;13.00;;;2.92;;
42714;SDS011;28351;51.480;5.706;2023-02-01T04:40:30;14.40;;;2.38;;
42714;SDS011;28351;51.480;5.706;2023-02-01T04:42:56;9.95;;;1.88;;
42714;SDS011;28351;51.480;5.706;2023-02-01T04:45:21;12.80;;;2.20;;
42714;SDS011;28351;51.480;5.706;2023-02-01T04:47:47;12.55;;;2.53;;
42714;SDS011;28351;51.480;5.706;2023-02-01T04:50:13;11.80;;;2.25;;
42714;SDS011;28351;51.480;5.706;2023-02-01T04:52:39;9.70;;;2.22;;
42714;SDS011;28351;51.480;5.706;2023-02-01T04:55:06;16.77;;;2.70;;
42714;SDS011;28351;51.480;5.706;2023-02-01T04:57:32;13.60;;;1.95;;
42714;SDS011;28351;51.480;5.706;2023-02-01T04:59:58;13.40;;;2.35;;
42714;SDS011;28351;51.480;5.706;2023-02-01T05:02:23;13.15;;;1.92;;
42714;SDS011;28351;51.480;5.706;2023-02-01T05:04:49;13.00;;;1.88;;
42714;SDS011;28351;51.480;5.706;2023-02-01T05:07:15;13.60;;;2.25;;
42714;SDS011;28351;51.480;5.706;2023-02-01T05:09:41;10.65;;;1.85;;
42714;SDS011;28351;51.480;5.706;2023-02-01T05:12:08;16.30;;;2.47;;
42714;SDS011;28351;51.480;5.706;2023-02-01T05:14:53;8.88;;;2.35;;
42714;SDS011;28351;51.480;5.706;2023-02-01T05:17:19;8.93;;;1.90;;
42714;SDS011;28351;51.480;5.706;2023-02-01T05:19:44;9.05;;;1.75;;
42714;SDS011;28351;51.480;5.706;2023-02-01T05:22:10;14.40;;;2.65;;
42714;SDS011;28351;51.480;5.706;2023-02-01T05:24:35;16.00;;;2.53;;
42714;SDS011;28351;51.480;5.706;2023-02-01T05:27:01;13.90;;;2.33;;
42714;SDS011;28351;51.480;5.706;2023-02-01T05:29:29;12.48;;;2.67;;
42714;SDS011;28351;51.480;5.706;2023-02-01T05:31:55;9.40;;;2.20;;
42714;SDS011;28351;51.480;5.706;2023-02-01T05:34:21;14.95;;;2.72;;
42714;SDS011;28351;51.480;5.706;2023-02-01T05:36:46;16.02;;;2.97;;
42714;SDS011;28351;51.480;5.706;2023-02-01T05:39:12;15.88;;;2.67;;
42714;SDS011;28351;51.480;5.706;2023-02-01T05:41:37;9.57;;;1.98;;
42714;SDS011;28351;51.480;5.706;2023-02-01T05:44:03;11.35;;;2.38;;
42714;SDS011;28351;51.480;5.706;2023-02-01T05:46:32;15.02;;;2.40;;
42714;SDS011;28351;51.480;5.706;2023-02-01T05:48:58;8.45;;;2.40;;
42714;SDS011;28351;51.480;5.706;2023-02-01T05:51:23;22.42;;;2.47;;
42714;SDS011;28351;51.480;5.706;2023-02-01T05:53:49;12.23;;;2.03;;
42714;SDS011;28351;51.480;5.706;2023-02-01T05:56:15;14.48;;;2.55;;
42714;SDS011;28351;51.480;5.706;2023-02-01T05:58:40;9.52;;;2.25;;
42714;SDS011;28351;51.480;5.706;2023-02-01T06:01:06;17.60;;;2.50;;
42714;SDS011;28351;51.480;5.706;2023-02-01T06:03:31;12.45;;;2.20;;
42714;SDS011;28351;51.480;5.706;2023-02-01T06:05:57;13.45;;;2.95;;
42714;SDS011;28351;51.480;5.706;2023-02-01T06:08:23;16.17;;;3.03;;
42714;SDS011;28351;51.480;5.706;2023-02-01T06:10:56;10.77;;;2.25;;
42714;SDS011;28351;51.480;5.706;2023-02-01T06:13:23;15.82;;;2.70;;
42714;SDS011;28351;51.480;5.706;2023-02-01T06:15:54;16.02;;;2.53;;
42714;SDS011;28351;51.480;5.706;2023-02-01T06:20:55;19.40;;;3.55;;
42714;SDS011;28351;51.480;5.706;2023-02-01T06:23:22;4.97;;;2.27;;
42714;SDS011;28351;51.480;5.706;2023-02-01T06:25:52;18.95;;;2.88;;
42714;SDS011;28351;51.480;5.706;2023-02-01T06:28:25;19.75;;;3.20;;
42714;SDS011;28351;51.480;5.706;2023-02-01T06:30:51;26.23;;;3.38;;
42714;SDS011;28351;51.480;5.706;2023-02-01T06:33:16;23.27;;;3.40;;
42714;SDS011;28351;51.480;5.706;2023-02-01T06:35:42;17.88;;;3.78;;
42714;SDS011;28351;51.480;5.706;2023-02-01T06:38:09;19.98;;;2.95;;
42714;SDS011;28351;51.480;5.706;2023-02-01T06:40:36;14.00;;;2.60;;
42714;SDS011;28351;51.480;5.706;2023-02-01T06:43:02;16.65;;;2.85;;
42714;SDS011;28351;51.480;5.706;2023-02-01T06:45:27;12.20;;;3.03;;
42714;SDS011;28351;51.480;5.706;2023-02-01T06:47:53;21.50;;;3.17;;
42714;SDS011;28351;51.480;5.706;2023-02-01T06:50:18;21.63;;;2.83;;
42714;SDS011;28351;51.480;5.706;2023-02-01T06:52:48;16.08;;;3.40;;
42714;SDS011;28351;51.480;5.706;2023-02-01T06:55:14;11.63;;;2.70;;
42714;SDS011;28351;51.480;5.706;2023-02-01T06:57:39;14.45;;;2.67;;
42714;SDS011;28351;51.480;5.706;2023-02-01T07:00:05;25.00;;;3.58;;
42714;SDS011;28351;51.480;5.706;2023-02-01T07:02:31;18.13;;;3.25;;
42714;SDS011;28351;51.480;5.706;2023-02-01T07:04:57;9.93;;;2.60;;
42714;SDS011;28351;51.480;5.706;2023-02-01T07:07:23;25.88;;;3.25;;
42714;SDS011;28351;51.480;5.706;2023-02-01T07:09:49;17.52;;;3.03;;
42714;SDS011;28351;51.480;5.706;2023-02-01T07:12:15;14.10;;;2.42;;
42714;SDS011;28351;51.480;5.706;2023-02-01T07:14:40;12.88;;;2.75;;
42714;SDS011;28351;51.480;5.706;2023-02-01T07:17:06;18.88;;;2.88;;
42714;SDS011;28351;51.480;5.706;2023-02-01T07:19:32;16.33;;;3.20;;
42714;SDS011;28351;51.480;5.706;2023-02-01T07:21:57;12.00;;;2.88;;
42714;SDS011;28351;51.480;5.706;2023-02-01T07:24:23;20.80;;;2.67;;
42714;SDS011;28351;51.480;5.706;2023-02-01T07:26:49;17.08;;;3.13;;
42714;SDS011;28351;51.480;5.706;2023-02-01T07:29:16;15.43;;;2.55;;
42714;SDS011;28351;51.480;5.706;2023-02-01T07:31:42;12.25;;;3.28;;
42714;SDS011;28351;51.480;5.706;2023-02-01T07:34:08;10.23;;;2.53;;
42714;SDS011;28351;51.480;5.706;2023-02-01T07:36:33;11.07;;;2.58;;
42714;SDS011;28351;51.480;5.706;2023-02-01T07:39:01;15.45;;;2.25;;
42714;SDS011;28351;51.480;5.706;2023-02-01T07:41:27;16.52;;;3.10;;
42714;SDS011;28351;51.480;5.706;2023-02-01T07:43:53;13.82;;;2.88;;
42714;SDS011;28351;51.480;5.706;2023-02-01T07:46:19;23.45;;;3.35;;
42714;SDS011;28351;51.480;5.706;2023-02-01T07:48:44;12.10;;;3.08;;
42714;SDS011;28351;51.480;5.706;2023-02-01T07:51:13;17.00;;;2.67;;
42714;SDS011;28351;51.480;5.706;2023-02-01T07:53:41;13.85;;;3.58;;
42714;SDS011;28351;51.480;5.706;2023-02-01T07:56:11;15.48;;;3.05;;
42714;SDS011;28351;51.480;5.706;2023-02-01T07:58:41;11.10;;;3.08;;
42714;SDS011;28351;51.480;5.706;2023-02-01T08:01:14;14.35;;;3.40;;
42714;SDS011;28351;51.480;5.706;2023-02-01T08:03:44;15.57;;;2.97;;
42714;SDS011;28351;51.480;5.706;2023-02-01T08:06:10;21.20;;;3.67;;
42714;SDS011;28351;51.480;5.706;2023-02-01T08:08:36;15.52;;;2.80;;
42714;SDS011;28351;51.480;5.706;2023-02-01T08:11:03;18.50;;;3.88;;
42714;SDS011;28351;51.480;5.706;2023-02-01T08:13:30;14.80;;;3.00;;
42714;SDS011;28351;51.480;5.706;2023-02-01T08:15:59;12.48;;;3.13;;
42714;SDS011;28351;51.480;5.706;2023-02-01T08:18:26;11.40;;;2.95;;
42714;SDS011;28351;51.480;5.706;2023-02-01T08:20:51;14.48;;;2.83;;
42714;SDS011;28351;51.480;5.706;2023-02-01T08:23:17;10.05;;;2.40;;
42714;SDS011;28351;51.480;5.706;2023-02-01T08:25:44;15.35;;;3.50;;
42714;SDS011;28351;51.480;5.706;2023-02-01T08:28:09;21.83;;;3.22;;
42714;SDS011;28351;51.480;5.706;2023-02-01T08:30:36;20.40;;;3.20;;
42714;SDS011;28351;51.480;5.706;2023-02-01T08:33:03;8.68;;;3.10;;
42714;SDS011;28351;51.480;5.706;2023-02-01T08:35:31;18.00;;;3.17;;
42714;SDS011;28351;51.480;5.706;2023-02-01T08:37:56;12.02;;;3.22;;
42714;SDS011;28351;51.480;5.706;2023-02-01T08:40:22;13.75;;;2.92;;
42714;SDS011;28351;51.480;5.706;2023-02-01T08:42:48;16.20;;;3.00;;
42714;SDS011;28351;51.480;5.706;2023-02-01T08:45:17;11.60;;;3.10;;
42714;SDS011;28351;51.480;5.706;2023-02-01T08:47:51;16.55;;;3.83;;
42714;SDS011;28351;51.480;5.706;2023-02-01T08:50:20;12.48;;;2.25;;
42714;SDS011;28351;51.480;5.706;2023-02-01T08:52:47;19.05;;;3.03;;
42714;SDS011;28351;51.480;5.706;2023-02-01T08:55:13;18.15;;;3.15;;
42714;SDS011;28351;51.480;5.706;2023-02-01T08:57:39;16.88;;;2.70;;
42714;SDS011;28351;51.480;5.706;2023-02-01T09:00:05;20.67;;;3.33;;
42714;SDS011;28351;51.480;5.706;2023-02-01T09:02:33;10.85;;;2.90;;
42714;SDS011;28351;51.480;5.706;2023-02-01T09:04:59;10.80;;;2.92;;
42714;SDS011;28351;51.480;5.706;2023-02-01T09:07:24;10.20;;;2.30;;
42714;SDS011;28351;51.480;5.706;2023-02-01T09:09:50;14.88;;;2.75;;
42714;SDS011;28351;51.480;5.706;2023-02-01T09:12:16;11.38;;;2.95;;
42714;SDS011;28351;51.480;5.706;2023-02-01T09:14:41;15.13;;;2.33;;
42714;SDS011;28351;51.480;5.706;2023-02-01T09:17:07;16.80;;;2.50;;
42714;SDS011;28351;51.480;5.706;2023-02-01T09:19:33;16.13;;;2.97;;
42714;SDS011;28351;51.480;5.706;2023-02-01T09:21:58;20.20;;;3.38;;
42714;SDS011;28351;51.480;5.706;2023-02-01T09:24:27;13.27;;;2.53;;
42714;SDS011;28351;51.480;5.706;2023-02-01T09:26:52;10.52;;;2.85;;
42714;SDS011;28351;51.480;5.706;2023-02-01T09:29:18;11.60;;;2.80;;
42714;SDS011;28351;51.480;5.706;2023-02-01T09:31:44;18.00;;;3.05;;
42714;SDS011;28351;51.480;5.706;2023-02-01T09:34:10;12.82;;;2.50;;
42714;SDS011;28351;51.480;5.706;2023-02-01T09:36:35;15.10;;;2.83;;
42714;SDS011;28351;51.480;5.706;2023-02-01T09:39:02;15.90;;;2.03;;
42714;SDS011;28351;51.480;5.706;2023-02-01T09:46:47;12.75;;;2.78;;
42714;SDS011;28351;51.480;5.706;2023-02-01T09:49:18;12.75;;;2.33;;
42714;SDS011;28351;51.480;5.706;2023-02-01T09:51:49;13.60;;;2.88;;
42714;SDS011;28351;51.480;5.706;2023-02-01T09:54:22;10.63;;;2.70;;
42714;SDS011;28351;51.480;5.706;2023-02-01T10:02:08;19.27;;;2.53;;
42714;SDS011;28351;51.480;5.706;2023-02-01T10:04:39;11.35;;;2.15;;
42714;SDS011;28351;51.480;5.706;2023-02-01T10:10:10;10.85;;;2.30;;
42714;SDS011;28351;51.480;5.706;2023-02-01T10:15:25;14.23;;;2.20;;
42714;SDS011;28351;51.480;5.706;2023-02-01T10:18:12;11.15;;;2.00;;
42714;SDS011;28351;51.480;5.706;2023-02-01T10:26:23;14.40;;;2.50;;
42714;SDS011;28351;51.480;5.706;2023-02-01T10:28:54;9.38;;;2.10;;
42714;SDS011;28351;51.480;5.706;2023-02-01T10:31:24;8.43;;;1.92;;
42714;SDS011;28351;51.480;5.706;2023-02-01T10:33:57;15.13;;;2.58;;
42714;SDS011;28351;51.480;5.706;2023-02-01T10:36:32;8.23;;;2.08;;
42714;SDS011;28351;51.480;5.706;2023-02-01T10:39:05;10.57;;;2.65;;
42714;SDS011;28351;51.480;5.706;2023-02-01T10:41:35;12.50;;;2.53;;
42714;SDS011;28351;51.480;5.706;2023-02-01T10:44:04;11.45;;;2.17;;
42714;SDS011;28351;51.480;5.706;2023-02-01T10:46:34;10.13;;;1.63;;
42714;SDS011;28351;51.480;5.706;2023-02-01T10:49:01;13.52;;;2.30;;
42714;SDS011;28351;51.480;5.706;2023-02-01T10:54:34;14.65;;;1.98;;
42714;SDS011;28351;51.480;5.706;2023-02-01T10:57:03;5.65;;;1.83;;
42714;SDS011;28351;51.480;5.706;2023-02-01T10:59:33;8.45;;;2.17;;
42714;SDS011;28351;51.480;5.706;2023-02-01T11:02:16;16.20;;;1.73;;
42714;SDS011;28351;51.480;5.706;2023-02-01T11:04:58;9.52;;;1.92;;
42714;SDS011;28351;51.480;5.706;2023-02-01T11:07:49;10.13;;;1.50;;
42714;SDS011;28351;51.480;5.706;2023-02-01T11:10:39;12.80;;;1.95;;
42714;SDS011;28351;51.480;5.706;2023-02-01T11:13:13;11.13;;;2.08;;
42714;SDS011;28351;51.480;5.706;2023-02-01T11:15:44;9.13;;;2.20;;
42714;SDS011;28351;51.480;5.706;2023-02-01T11:18:15;9.85;;;1.80;;
42714;SDS011;28351;51.480;5.706;2023-02-01T11:20:43;18.92;;;2.22;;
42714;SDS011;28351;51.480;5.706;2023-02-01T11:23:47;9.98;;;2.50;;
42714;SDS011;28351;51.480;5.706;2023-02-01T11:26:15;11.57;;;2.03;;
42714;SDS011;28351;51.480;5.706;2023-02-01T11:28:54;14.43;;;2.22;;
42714;SDS011;28351;51.480;5.706;2023-02-01T11:31:44;10.68;;;2.17;;
42714;SDS011;28351;51.480;5.706;2023-02-01T11:34:14;9.50;;;1.85;;
42714;SDS011;28351;51.480;5.706;2023-02-01T11:36:45;11.20;;;2.13;;
42714;SDS011;28351;51.480;5.706;2023-02-01T11:41:55;7.78;;;1.65;;
42714;SDS011;28351;51.480;5.706;2023-02-01T11:44:40;10.60;;;2.13;;
42714;SDS011;28351;51.480;5.706;2023-02-01T11:49:44;6.95;;;2.03;;
42714;SDS011;28351;51.480;5.706;2023-02-01T11:54:56;8.82;;;1.77;;
42714;SDS011;28351;51.480;5.706;2023-02-01T12:10:06;7.50;;;1.80;;
42714;SDS011;28351;51.480;5.706;2023-02-01T12:18:05;7.93;;;1.88;;
42714;SDS011;28351;51.480;5.706;2023-02-01T12:32:57;17.05;;;2.78;;
42714;SDS011;28351;51.480;5.706;2023-02-01T12:38:34;8.57;;;2.20;;
42714;SDS011;28351;51.480;5.706;2023-02-01T12:50:03;11.68;;;1.92;;
42714;SDS011;28351;51.480;5.706;2023-02-01T12:52:43;13.27;;;1.53;;
42714;SDS011;28351;51.480;5.706;2023-02-01T12:57:55;9.90;;;1.52;;
42714;SDS011;28351;51.480;5.706;2023-02-01T13:00:39;7.97;;;1.70;;
42714;SDS011;28351;51.480;5.706;2023-02-01T13:08:17;7.28;;;1.77;;
42714;SDS011;28351;51.480;5.706;2023-02-01T13:16:52;11.02;;;1.65;;
42714;SDS011;28351;51.480;5.706;2023-02-01T13:22:24;8.05;;;1.65;;
42714;SDS011;28351;51.480;5.706;2023-02-01T13:24:58;8.90;;;2.72;;
42714;SDS011;28351;51.480;5.706;2023-02-01T13:27:27;9.35;;;1.70;;
42714;SDS011;28351;51.480;5.706;2023-02-01T13:43:11;10.80;;;1.50;;
42714;SDS011;28351;51.480;5.706;2023-02-01T13:45:52;12.48;;;1.80;;
42714;SDS011;28351;51.480;5.706;2023-02-01T13:48:24;9.18;;;1.80;;
42714;SDS011;28351;51.480;5.706;2023-02-01T13:50:56;8.57;;;1.92;;
42714;SDS011;28351;51.480;5.706;2023-02-01T13:53:36;9.47;;;1.50;;
42714;SDS011;28351;51.480;5.706;2023-02-01T13:58:41;11.77;;;1.70;;
42714;SDS011;28351;51.480;5.706;2023-02-01T14:06:43;8.77;;;1.63;;
42714;SDS011;28351;51.480;5.706;2023-02-01T14:11:39;8.18;;;1.90;;
42714;SDS011;28351;51.480;5.706;2023-02-01T14:16:40;9.27;;;1.65;;
42714;SDS011;28351;51.480;5.706;2023-02-01T14:19:26;7.82;;;1.73;;
42714;SDS011;28351;51.480;5.706;2023-02-01T14:21:57;6.60;;;1.88;;
42714;SDS011;28351;51.480;5.706;2023-02-01T14:24:32;11.70;;;1.80;;
42714;SDS011;28351;51.480;5.706;2023-02-01T14:27:00;6.68;;;1.88;;
42714;SDS011;28351;51.480;5.706;2023-02-01T14:29:39;9.90;;;1.70;;
42714;SDS011;28351;51.480;5.706;2023-02-01T14:58:16;7.25;;;1.92;;
42714;SDS011;28351;51.480;5.706;2023-02-01T15:06:53;11.27;;;3.70;;
42714;SDS011;28351;51.480;5.706;2023-02-01T15:09:27;9.98;;;1.83;;
42714;SDS011;28351;51.480;5.706;2023-02-01T15:14:37;10.77;;;2.55;;
42714;SDS011;28351;51.480;5.706;2023-02-01T15:20:01;8.95;;;2.03;;
42714;SDS011;28351;51.480;5.706;2023-02-01T15:22:36;8.80;;;1.63;;
42714;SDS011;28351;51.480;5.706;2023-02-01T15:25:04;10.23;;;1.73;;
42714;SDS011;28351;51.480;5.706;2023-02-01T15:27:31;9.18;;;2.10;;
42714;SDS011;28351;51.480;5.706;2023-02-01T15:30:07;13.77;;;2.05;;
42714;SDS011;28351;51.480;5.706;2023-02-01T15:32:40;11.85;;;2.05;;
42714;SDS011;28351;51.480;5.706;2023-02-01T15:35:35;12.15;;;1.85;;
42714;SDS011;28351;51.480;5.706;2023-02-01T15:41:09;11.38;;;1.50;;
42714;SDS011;28351;51.480;5.706;2023-02-01T15:43:37;9.30;;;1.83;;
42714;SDS011;28351;51.480;5.706;2023-02-01T15:46:36;14.10;;;2.90;;
42714;SDS011;28351;51.480;5.706;2023-02-01T15:51:48;11.10;;;2.13;;
42714;SDS011;28351;51.480;5.706;2023-02-01T15:54:19;10.70;;;1.92;;
42714;SDS011;28351;51.480;5.706;2023-02-01T15:56:52;5.82;;;1.60;;
42714;SDS011;28351;51.480;5.706;2023-02-01T15:59:20;11.43;;;1.67;;
42714;SDS011;28351;51.480;5.706;2023-02-01T16:01:49;11.75;;;1.90;;
42714;SDS011;28351;51.480;5.706;2023-02-01T16:04:17;18.92;;;2.85;;
42714;SDS011;28351;51.480;5.706;2023-02-01T16:06:54;10.10;;;1.65;;
42714;SDS011;28351;51.480;5.706;2023-02-01T16:09:25;7.87;;;2.17;;
42714;SDS011;28351;51.480;5.706;2023-02-01T16:12:17;12.05;;;2.20;;
42714;SDS011;28351;51.480;5.706;2023-02-01T16:15:00;10.25;;;1.75;;
42714;SDS011;28351;51.480;5.706;2023-02-01T16:17:27;9.38;;;2.20;;
42714;SDS011;28351;51.480;5.706;2023-02-01T16:19:52;16.05;;;2.47;;
42714;SDS011;28351;51.480;5.706;2023-02-01T16:22:18;8.43;;;2.05;;
42714;SDS011;28351;51.480;5.706;2023-02-01T16:24:44;8.13;;;2.35;;
42714;SDS011;28351;51.480;5.706;2023-02-01T16:27:33;8.25;;;2.15;;
42714;SDS011;28351;51.480;5.706;2023-02-01T16:29:58;7.97;;;2.10;;
42714;SDS011;28351;51.480;5.706;2023-02-01T16:32:24;14.18;;;2.22;;
42714;SDS011;28351;51.480;5.706;2023-02-01T16:34:51;8.30;;;2.15;;
42714;SDS011;28351;51.480;5.706;2023-02-01T16:37:22;21.70;;;2.60;;
42714;SDS011;28351;51.480;5.706;2023-02-01T16:39:48;13.55;;;1.92;;
42714;SDS011;28351;51.480;5.706;2023-02-01T16:44:46;8.50;;;2.60;;
42714;SDS011;28351;51.480;5.706;2023-02-01T16:47:16;21.10;;;2.40;;
42714;SDS011;28351;51.480;5.706;2023-02-01T16:49:44;8.57;;;2.15;;
42714;SDS011;28351;51.480;5.706;2023-02-01T16:52:22;14.90;;;2.03;;
42714;SDS011;28351;51.480;5.706;2023-02-01T16:54:50;15.63;;;2.13;;
42714;SDS011;28351;51.480;5.706;2023-02-01T16:57:16;9.48;;;2.70;;
42714;SDS011;28351;51.480;5.706;2023-02-01T17:02:13;8.68;;;1.98;;
42714;SDS011;28351;51.480;5.706;2023-02-01T17:04:40;7.05;;;1.73;;
42714;SDS011;28351;51.480;5.706;2023-02-01T17:07:11;12.00;;;2.20;;
42714;SDS011;28351;51.480;5.706;2023-02-01T17:09:38;17.15;;;2.92;;
42714;SDS011;28351;51.480;5.706;2023-02-01T17:12:04;14.52;;;2.22;;
42714;SDS011;28351;51.480;5.706;2023-02-01T17:14:31;11.43;;;2.95;;
42714;SDS011;28351;51.480;5.706;2023-02-01T17:17:00;7.57;;;1.77;;
42714;SDS011;28351;51.480;5.706;2023-02-01T17:19:26;12.50;;;1.83;;
42714;SDS011;28351;51.480;5.706;2023-02-01T17:21:53;13.07;;;2.00;;
42714;SDS011;28351;51.480;5.706;2023-02-01T17:24:24;12.23;;;2.00;;
42714;SDS011;28351;51.480;5.706;2023-02-01T17:26:51;12.13;;;2.30;;
42714;SDS011;28351;51.480;5.706;2023-02-01T17:29:17;12.68;;;2.30;;
42714;SDS011;28351;51.480;5.706;2023-02-01T17:31:44;14.70;;;2.10;;
42714;SDS011;28351;51.480;5.706;2023-02-01T17:34:13;17.63;;;2.65;;
42714;SDS011;28351;51.480;5.706;2023-02-01T17:36:43;7.65;;;2.00;;
42714;SDS011;28351;51.480;5.706;2023-02-01T17:39:11;10.07;;;1.92;;
42714;SDS011;28351;51.480;5.706;2023-02-01T17:41:57;13.07;;;2.25;;
42714;SDS011;28351;51.480;5.706;2023-02-01T17:44:24;12.55;;;1.95;;
42714;SDS011;28351;51.480;5.706;2023-02-01T17:46:49;8.90;;;1.73;;
42714;SDS011;28351;51.480;5.706;2023-02-01T17:49:15;13.95;;;2.80;;
42714;SDS011;28351;51.480;5.706;2023-02-01T17:51:41;8.68;;;1.83;;
42714;SDS011;28351;51.480;5.706;2023-02-01T17:54:12;12.00;;;2.25;;
42714;SDS011;28351;51.480;5.706;2023-02-01T17:56:39;11.80;;;2.22;;
42714;SDS011;28351;51.480;5.706;2023-02-01T17:59:04;8.45;;;1.98;;
42714;SDS011;28351;51.480;5.706;2023-02-01T18:01:30;8.60;;;2.50;;
42714;SDS011;28351;51.480;5.706;2023-02-01T18:04:36;15.60;;;2.78;;
42714;SDS011;28351;51.480;5.706;2023-02-01T18:07:01;9.02;;;2.33;;
42714;SDS011;28351;51.480;5.706;2023-02-01T18:09:27;10.48;;;2.00;;
42714;SDS011;28351;51.480;5.706;2023-02-01T18:11:53;15.90;;;2.60;;
42714;SDS011;28351;51.480;5.706;2023-02-01T18:14:19;17.45;;;3.40;;
42714;SDS011;28351;51.480;5.706;2023-02-01T18:16:45;13.00;;;2.42;;
42714;SDS011;28351;51.480;5.706;2023-02-01T18:19:11;13.70;;;3.00;;
42714;SDS011;28351;51.480;5.706;2023-02-01T18:21:40;13.25;;;2.65;;
42714;SDS011;28351;51.480;5.706;2023-02-01T18:24:16;10.80;;;2.45;;
42714;SDS011;28351;51.480;5.706;2023-02-01T18:26:43;5.35;;;1.63;;
42714;SDS011;28351;51.480;5.706;2023-02-01T18:29:09;6.53;;;2.38;;